Time;durP1;ratioP1;P1;durP2;ratioP2;P2;SDS_P1;SDS_P2;PMS_P1;PMS_P2;Temp;Humidity;BMP_temperature;BMP_pressure;BME280_temperature;BME280_humidity;BME280_pressure;Samples;Min_cycle;Max_cycle;Signal;HPM_P1;HPM_P2
2022/03/10 00:00:21;;;;;;;11.88;5.47;;;;;;;;;;1778745;81;21505;-69
2022/03/10 00:02:48;;;;;;;9.00;4.33;;;;;;;;;;1778666;80;20973;-69
2022/03/10 00:05:21;;;;;;;8.63;4.75;;;;;;;;;;1778854;80;21056;-69
2022/03/10 00:07:48;;;;;;;10.05;5.00;;;;;;;;;;1778664;81;21025;-69
2022/03/10 00:10:14;;;;;;;8.68;5.28;;;;;;;;;;1778764;81;21020;-69
2022/03/10 00:12:51;;;;;;;9.28;5.95;;;;;;;;;;1778528;80;21013;-69
2022/03/10 00:15:22;;;;;;;9.15;5.37;;;;;;;;;;1778741;81;21559;-68
2022/03/10 00:17:49;;;;;;;8.60;4.75;;;;;;;;;;1778669;81;21032;-68
2022/03/10 00:20:17;;;;;;;8.40;4.90;;;;;;;;;;1779098;81;21103;-68
2022/03/10 00:22:47;;;;;;;7.17;4.30;;;;;;;;;;1778390;80;21070;-68
2022/03/10 00:25:14;;;;;;;8.88;5.37;;;;;;;;;;1778877;81;21471;-68
2022/03/10 00:27:42;;;;;;;8.05;4.87;;;;;;;;;;1778369;81;21124;-68
2022/03/10 00:30:08;;;;;;;10.35;5.17;;;;;;;;;;1778703;81;21084;-68
2022/03/10 00:32:40;;;;;;;7.90;5.35;;;;;;;;;;1778535;81;21543;-68
2022/03/10 00:35:07;;;;;;;10.25;6.12;;;;;;;;;;1777815;80;21036;-68
2022/03/10 00:37:35;;;;;;;11.00;5.90;;;;;;;;;;1778645;81;20973;-68
2022/03/10 00:40:02;;;;;;;9.13;5.37;;;;;;;;;;1778686;80;21037;-69
2022/03/10 00:42:31;;;;;;;12.75;5.75;;;;;;;;;;1778471;81;21081;-68
2022/03/10 00:44:57;;;;;;;8.75;4.87;;;;;;;;;;1778360;80;21521;-69
2022/03/10 00:47:24;;;;;;;7.92;4.75;;;;;;;;;;1778663;81;21021;-69
2022/03/10 00:49:51;;;;;;;7.05;4.55;;;;;;;;;;1781877;80;21612;-69
2022/03/10 00:52:19;;;;;;;6.30;4.22;;;;;;;;;;1784278;80;21013;-69
2022/03/10 00:54:45;;;;;;;9.48;4.95;;;;;;;;;;1784508;80;21022;-69
2022/03/10 00:57:11;;;;;;;10.48;5.05;;;;;;;;;;1784277;80;21096;-68
2022/03/10 00:59:38;;;;;;;7.83;4.30;;;;;;;;;;1784510;80;21052;-69
2022/03/10 01:04:18;;;;;;;7.70;4.15;;;;;;;;;;1802079;79;22817;-67
2022/03/10 01:06:46;;;;;;;10.63;6.17;;;;;;;;;;1761497;81;21018;-68
2022/03/10 01:09:13;;;;;;;8.95;5.05;;;;;;;;;;1761768;81;21044;-68
2022/03/10 01:11:39;;;;;;;11.93;5.67;;;;;;;;;;1761704;81;21465;-68
2022/03/10 01:14:07;;;;;;;8.98;5.35;;;;;;;;;;1761839;81;21575;-68
2022/03/10 01:16:34;;;;;;;13.83;5.40;;;;;;;;;;1761848;81;21064;-68
2022/03/10 01:19:00;;;;;;;8.88;5.97;;;;;;;;;;1761730;81;21029;-68
2022/03/10 01:21:28;;;;;;;9.33;5.12;;;;;;;;;;1762027;81;21099;-68
2022/03/10 01:23:55;;;;;;;11.45;5.65;;;;;;;;;;1761925;81;21091;-68
2022/03/10 01:26:21;;;;;;;10.00;4.90;;;;;;;;;;1762163;81;21084;-68
2022/03/10 01:28:48;;;;;;;8.83;5.42;;;;;;;;;;1735838;81;21067;-68
2022/03/10 01:31:14;;;;;;;9.05;5.28;;;;;;;;;;1728368;83;21031;-68
2022/03/10 01:33:41;;;;;;;9.70;5.33;;;;;;;;;;1728196;83;21535;-68
2022/03/10 01:36:07;;;;;;;9.45;4.45;;;;;;;;;;1728293;83;21064;-68
2022/03/10 01:38:39;;;;;;;10.10;5.37;;;;;;;;;;1727948;83;21095;-69
2022/03/10 01:41:03;;;;;;;8.68;5.55;;;;;;;;;;1727940;83;21063;-68
2022/03/10 01:43:30;;;;;;;11.28;5.58;;;;;;;;;;1728059;83;21542;-68
2022/03/10 01:45:57;;;;;;;11.43;5.42;;;;;;;;;;1728169;83;21583;-68
2022/03/10 01:48:24;;;;;;;10.63;5.45;;;;;;;;;;1728203;83;21020;-67
2022/03/10 01:50:51;;;;;;;7.62;4.90;;;;;;;;;;1728357;83;21032;-68
2022/03/10 01:53:17;;;;;;;12.07;5.95;;;;;;;;;;1728021;83;21028;-68
2022/03/10 01:55:45;;;;;;;7.95;4.95;;;;;;;;;;1728330;83;21008;-67
2022/03/10 01:58:13;;;;;;;8.75;4.67;;;;;;;;;;1728029;83;21032;-68
2022/03/10 02:03:34;;;;;;;10.15;5.12;;;;;;;;;;1696690;78;21216;-69
2022/03/10 02:06:01;;;;;;;9.25;4.80;;;;;;;;;;1654214;84;21026;-69
2022/03/10 02:11:13;;;;;;;8.63;4.45;;;;;;;;;;1653797;86;21117;-70
2022/03/10 02:13:40;;;;;;;11.28;5.37;;;;;;;;;;1652924;86;21057;-70
2022/03/10 02:18:57;;;;;;;8.68;4.83;;;;;;;;;;1653345;86;21121;-69
2022/03/10 02:21:24;;;;;;;10.08;4.45;;;;;;;;;;1653458;86;20986;-70
2022/03/10 02:23:50;;;;;;;8.45;4.53;;;;;;;;;;1652405;86;21066;-69
2022/03/10 02:26:17;;;;;;;8.88;4.70;;;;;;;;;;1653085;86;21077;-70
2022/03/10 02:28:43;;;;;;;6.83;4.33;;;;;;;;;;1654183;86;21074;-69
2022/03/10 02:31:10;;;;;;;8.20;4.67;;;;;;;;;;1651017;86;21034;-69
2022/03/10 02:33:37;;;;;;;6.60;4.10;;;;;;;;;;1652297;86;21077;-70
2022/03/10 02:36:04;;;;;;;8.33;4.42;;;;;;;;;;1652784;86;21077;-69
2022/03/10 02:38:32;;;;;;;9.18;4.78;;;;;;;;;;1653633;86;21588;-70
2022/03/10 02:40:58;;;;;;;7.15;4.70;;;;;;;;;;1652690;86;21578;-70
2022/03/10 02:43:25;;;;;;;7.10;3.87;;;;;;;;;;1653175;86;21568;-70
2022/03/10 02:45:51;;;;;;;7.92;3.72;;;;;;;;;;1651448;86;21058;-70
2022/03/10 02:48:18;;;;;;;6.72;3.60;;;;;;;;;;1652218;86;21106;-70
2022/03/10 02:50:45;;;;;;;5.78;3.90;;;;;;;;;;1653471;86;21050;-69
2022/03/10 02:53:11;;;;;;;4.80;3.40;;;;;;;;;;1652563;86;21328;-70
2022/03/10 02:55:39;;;;;;;6.55;3.25;;;;;;;;;;1652741;86;21089;-70
2022/03/10 02:58:05;;;;;;;5.58;3.27;;;;;;;;;;1654293;86;21561;-69
2022/03/10 03:00:32;;;;;;;7.62;3.35;;;;;;;;;;1653272;86;21542;-69
2022/03/10 03:03:00;;;;;;;5.65;3.33;;;;;;;;;;1659869;84;21134;-69
2022/03/10 03:05:26;;;;;;;5.50;3.05;;;;;;;;;;1682174;85;21038;-69
2022/03/10 03:07:52;;;;;;;6.47;3.47;;;;;;;;;;1714383;83;21037;-69
2022/03/10 03:10:19;;;;;;;7.60;4.83;;;;;;;;;;1682584;85;21569;-70
2022/03/10 03:12:50;;;;;;;6.85;3.33;;;;;;;;;;1715045;84;21069;-69
2022/03/10 03:15:16;;;;;;;7.33;3.33;;;;;;;;;;1682838;85;21604;-70
2022/03/10 03:17:44;;;;;;;4.30;3.15;;;;;;;;;;1715198;84;21041;-69
2022/03/10 03:20:14;;;;;;;5.78;3.50;;;;;;;;;;1682743;85;21525;-70
2022/03/10 03:22:39;;;;;;;5.95;3.62;;;;;;;;;;1714886;84;21108;-69
2022/03/10 03:25:06;;;;;;;8.05;3.92;;;;;;;;;;1682419;85;21549;-70
2022/03/10 03:27:32;;;;;;;8.80;4.30;;;;;;;;;;1714982;84;21073;-69
2022/03/10 03:30:02;;;;;;;7.08;4.12;;;;;;;;;;1682489;85;21081;-69
2022/03/10 03:32:29;;;;;;;6.90;3.95;;;;;;;;;;1715075;84;21065;-70
2022/03/10 03:34:55;;;;;;;9.28;4.28;;;;;;;;;;1682744;85;21002;-70
2022/03/10 03:37:21;;;;;;;6.33;3.87;;;;;;;;;;1715012;84;21005;-70
2022/03/10 03:39:49;;;;;;;6.72;4.30;;;;;;;;;;1682514;85;21062;-70
2022/03/10 03:42:15;;;;;;;6.42;3.52;;;;;;;;;;1715012;84;21025;-70
2022/03/10 03:44:42;;;;;;;7.22;4.00;;;;;;;;;;1682449;85;21094;-69
2022/03/10 03:47:09;;;;;;;7.95;4.28;;;;;;;;;;1715069;84;21525;-69
2022/03/10 03:49:36;;;;;;;10.08;4.53;;;;;;;;;;1682416;85;21073;-69
2022/03/10 03:52:02;;;;;;;7.22;3.75;;;;;;;;;;1715239;84;21029;-70
2022/03/10 03:54:29;;;;;;;7.95;4.53;;;;;;;;;;1714753;84;21049;-70
2022/03/10 03:56:56;;;;;;;8.08;3.98;;;;;;;;;;1682850;85;21066;-68
2022/03/10 03:59:23;;;;;;;7.75;4.58;;;;;;;;;;1714890;84;21120;-69
2022/03/10 04:01:50;;;;;;;7.72;3.95;;;;;;;;;;1682913;85;21073;-70
2022/03/10 04:04:19;;;;;;;6.70;3.95;;;;;;;;;;1714888;82;21065;-70
2022/03/10 04:06:45;;;;;;;8.25;4.00;;;;;;;;;;1682775;84;21070;-69
2022/03/10 04:09:13;;;;;;;7.53;4.15;;;;;;;;;;1715178;84;21077;-70
2022/03/10 04:11:39;;;;;;;7.58;4.50;;;;;;;;;;1682924;85;22163;-70
2022/03/10 04:14:10;;;;;;;8.43;4.55;;;;;;;;;;1715005;84;21072;-70
2022/03/10 04:16:35;;;;;;;5.45;3.52;;;;;;;;;;1682477;84;21625;-69
2022/03/10 04:19:02;;;;;;;9.30;4.47;;;;;;;;;;1714943;84;21564;-69
2022/03/10 04:21:28;;;;;;;8.28;4.80;;;;;;;;;;1682853;85;21074;-68
2022/03/10 04:23:55;;;;;;;7.25;4.40;;;;;;;;;;1714971;84;21073;-70
2022/03/10 04:26:21;;;;;;;6.10;4.17;;;;;;;;;;1682804;85;21158;-69
2022/03/10 04:28:49;;;;;;;7.70;4.37;;;;;;;;;;1715038;84;21125;-69
2022/03/10 04:31:16;;;;;;;8.00;4.15;;;;;;;;;;1682448;85;21034;-69
2022/03/10 04:33:44;;;;;;;6.80;4.58;;;;;;;;;;1714896;84;21081;-70
2022/03/10 04:36:11;;;;;;;6.70;4.45;;;;;;;;;;1682450;85;21109;-69
2022/03/10 04:38:39;;;;;;;7.72;4.30;;;;;;;;;;1715296;84;21069;-69
2022/03/10 04:41:05;;;;;;;9.53;4.33;;;;;;;;;;1682525;85;21126;-69
2022/03/10 04:43:32;;;;;;;10.00;4.37;;;;;;;;;;1714934;84;21073;-69
2022/03/10 04:45:59;;;;;;;7.47;3.87;;;;;;;;;;1714720;84;21521;-69
2022/03/10 04:48:26;;;;;;;9.58;4.75;;;;;;;;;;1682610;85;21058;-69
2022/03/10 04:50:53;;;;;;;7.00;4.00;;;;;;;;;;1714782;84;21081;-69
2022/03/10 04:53:20;;;;;;;9.40;4.67;;;;;;;;;;1682776;85;21065;-69
2022/03/10 04:55:47;;;;;;;5.97;3.62;;;;;;;;;;1714617;84;21058;-70
2022/03/10 04:58:13;;;;;;;8.00;3.98;;;;;;;;;;1682880;85;21041;-69
2022/03/10 05:00:40;;;;;;;8.35;4.30;;;;;;;;;;1714626;84;21069;-70
2022/03/10 05:03:06;;;;;;;7.35;3.95;;;;;;;;;;1682755;84;21062;-70
2022/03/10 05:05:33;;;;;;;8.80;4.67;;;;;;;;;;1701421;82;21050;-69
2022/03/10 05:07:59;;;;;;;6.30;3.65;;;;;;;;;;1680741;85;21514;-69
2022/03/10 05:10:26;;;;;;;7.37;4.15;;;;;;;;;;1680450;85;21117;-70
2022/03/10 05:12:54;;;;;;;10.85;4.33;;;;;;;;;;1680765;85;21054;-69
2022/03/10 05:15:23;;;;;;;7.83;3.98;;;;;;;;;;1680620;85;21145;-70
2022/03/10 05:17:49;;;;;;;6.67;3.87;;;;;;;;;;1680592;85;21022;-69
2022/03/10 05:20:17;;;;;;;6.55;3.75;;;;;;;;;;1680878;85;21050;-69
2022/03/10 05:22:45;;;;;;;8.03;3.98;;;;;;;;;;1680580;85;21137;-70
2022/03/10 05:25:12;;;;;;;6.75;3.35;;;;;;;;;;1680800;85;21046;-69
2022/03/10 05:27:39;;;;;;;8.48;4.12;;;;;;;;;;1680564;85;21094;-70
2022/03/10 05:30:06;;;;;;;6.35;3.58;;;;;;;;;;1680625;85;21094;-69
2022/03/10 05:32:32;;;;;;;6.60;3.33;;;;;;;;;;1680787;85;21010;-69
2022/03/10 05:35:03;;;;;;;6.37;3.50;;;;;;;;;;1680592;85;21113;-69
2022/03/10 05:37:30;;;;;;;5.87;3.27;;;;;;;;;;1680901;85;21557;-70
2022/03/10 05:39:56;;;;;;;5.10;3.55;;;;;;;;;;1680728;85;21051;-69
2022/03/10 05:42:22;;;;;;;6.20;3.45;;;;;;;;;;1680874;85;21036;-70
2022/03/10 05:44:49;;;;;;;5.47;3.30;;;;;;;;;;1680463;85;21035;-70
2022/03/10 05:47:16;;;;;;;6.90;3.62;;;;;;;;;;1680941;85;21042;-70
2022/03/10 05:49:42;;;;;;;7.37;3.75;;;;;;;;;;1680784;85;21061;-70
2022/03/10 05:52:09;;;;;;;7.58;3.58;;;;;;;;;;1680977;85;21573;-70
2022/03/10 05:54:36;;;;;;;4.95;2.90;;;;;;;;;;1680483;85;21604;-70
2022/03/10 05:57:03;;;;;;;6.12;3.40;;;;;;;;;;1680911;85;21557;-69
2022/03/10 05:59:29;;;;;;;6.92;3.72;;;;;;;;;;1680597;85;21121;-69
2022/03/10 06:01:56;;;;;;;5.58;3.72;;;;;;;;;;1680916;85;21054;-69
2022/03/10 06:04:23;;;;;;;7.72;3.42;;;;;;;;;;1680620;84;21109;-68
2022/03/10 06:06:51;;;;;;;8.88;4.00;;;;;;;;;;1708490;84;21080;-68
2022/03/10 06:09:18;;;;;;;6.17;3.47;;;;;;;;;;1682628;85;21097;-69
2022/03/10 06:11:44;;;;;;;5.90;3.50;;;;;;;;;;1682801;85;21608;-69
2022/03/10 06:14:11;;;;;;;7.17;3.72;;;;;;;;;;1714886;84;21092;-69
2022/03/10 06:16:38;;;;;;;5.47;3.52;;;;;;;;;;1682759;85;21546;-69
2022/03/10 06:19:04;;;;;;;5.58;3.45;;;;;;;;;;1715181;84;21037;-69
2022/03/10 06:21:33;;;;;;;4.90;2.95;;;;;;;;;;1715045;84;21093;-69
2022/03/10 06:24:00;;;;;;;5.40;3.55;;;;;;;;;;1682862;85;21557;-69
2022/03/10 06:26:26;;;;;;;5.62;3.33;;;;;;;;;;1715195;84;21513;-69
2022/03/10 06:28:53;;;;;;;5.53;3.42;;;;;;;;;;1682568;85;22113;-69
2022/03/10 06:31:19;;;;;;;5.55;3.05;;;;;;;;;;1715155;84;21109;-69
2022/03/10 06:33:46;;;;;;;7.20;3.35;;;;;;;;;;1682695;85;21034;-68
2022/03/10 06:36:13;;;;;;;5.75;3.08;;;;;;;;;;1715114;84;21076;-69
2022/03/10 06:38:40;;;;;;;6.17;3.58;;;;;;;;;;1682893;85;21086;-69
2022/03/10 06:41:07;;;;;;;5.03;2.85;;;;;;;;;;1715117;84;21046;-68
2022/03/10 06:43:34;;;;;;;5.80;3.42;;;;;;;;;;1682798;85;21054;-69
2022/03/10 06:46:00;;;;;;;7.53;3.72;;;;;;;;;;1714967;84;21105;-70
2022/03/10 06:48:28;;;;;;;6.40;3.72;;;;;;;;;;1682932;85;21541;-68
2022/03/10 06:50:55;;;;;;;10.25;3.55;;;;;;;;;;1714939;84;21097;-69
2022/03/10 06:53:21;;;;;;;5.78;3.47;;;;;;;;;;1682890;85;21038;-70
2022/03/10 06:55:48;;;;;;;6.35;3.00;;;;;;;;;;1714997;84;21081;-69
2022/03/10 06:58:15;;;;;;;5.87;3.40;;;;;;;;;;1682988;85;21089;-69
2022/03/10 07:00:44;;;;;;;4.95;3.55;;;;;;;;;;1715109;84;21645;-69
2022/03/10 07:03:11;;;;;;;5.87;3.10;;;;;;;;;;1682857;84;21128;-69
2022/03/10 07:05:38;;;;;;;8.20;4.03;;;;;;;;;;1714827;84;21109;-70
2022/03/10 07:08:05;;;;;;;6.08;2.90;;;;;;;;;;1682945;85;21054;-71
2022/03/10 07:10:31;;;;;;;5.60;3.08;;;;;;;;;;1714881;84;21081;-70
2022/03/10 07:12:58;;;;;;;5.97;3.22;;;;;;;;;;1682748;85;21038;-70
2022/03/10 07:15:25;;;;;;;9.33;3.27;;;;;;;;;;1715112;84;21003;-69
2022/03/10 07:17:52;;;;;;;6.28;3.60;;;;;;;;;;1682613;85;21058;-70
2022/03/10 07:20:19;;;;;;;5.30;2.90;;;;;;;;;;1715110;84;21093;-69
2022/03/10 07:22:46;;;;;;;6.00;3.25;;;;;;;;;;1682579;85;21569;-69
2022/03/10 07:25:13;;;;;;;6.53;3.25;;;;;;;;;;1715075;84;21089;-69
2022/03/10 07:27:40;;;;;;;7.80;3.83;;;;;;;;;;1682612;85;21097;-69
2022/03/10 07:30:07;;;;;;;5.83;3.10;;;;;;;;;;1715024;84;21563;-69
2022/03/10 07:32:35;;;;;;;6.58;3.40;;;;;;;;;;1682767;85;21573;-69
2022/03/10 07:35:02;;;;;;;6.95;3.55;;;;;;;;;;1714966;84;21580;-69
2022/03/10 07:37:29;;;;;;;5.75;3.37;;;;;;;;;;1682503;85;21070;-70
2022/03/10 07:39:55;;;;;;;7.03;2.62;;;;;;;;;;1682805;85;21038;-70
2022/03/10 07:42:22;;;;;;;4.90;3.10;;;;;;;;;;1714778;84;21108;-69
2022/03/10 07:44:48;;;;;;;4.45;2.72;;;;;;;;;;1682875;85;21049;-70
2022/03/10 07:47:15;;;;;;;4.40;2.50;;;;;;;;;;1714943;84;21093;-70
2022/03/10 07:49:43;;;;;;;4.25;2.95;;;;;;;;;;1682807;85;21541;-69
2022/03/10 07:52:09;;;;;;;5.92;2.85;;;;;;;;;;1682883;85;21090;-69
2022/03/10 07:54:35;;;;;;;7.20;2.77;;;;;;;;;;1715049;84;21044;-69
2022/03/10 07:57:02;;;;;;;3.55;2.33;;;;;;;;;;1682602;85;21069;-69
2022/03/10 07:59:28;;;;;;;5.60;2.90;;;;;;;;;;1715137;84;21045;-69
2022/03/10 08:01:55;;;;;;;6.55;2.80;;;;;;;;;;1682641;85;21121;-70
2022/03/10 08:04:22;;;;;;;4.47;2.50;;;;;;;;;;1714830;82;21117;-69
2022/03/10 08:06:49;;;;;;;5.30;2.80;;;;;;;;;;1687027;84;21011;-70
2022/03/10 08:09:16;;;;;;;5.33;2.87;;;;;;;;;;1680923;85;21109;-69
2022/03/10 08:11:42;;;;;;;5.08;2.83;;;;;;;;;;1681028;85;21058;-70
2022/03/10 08:14:09;;;;;;;3.27;2.30;;;;;;;;;;1680937;85;21098;-72
2022/03/10 08:16:36;;;;;;;3.92;2.62;;;;;;;;;;1681011;85;21074;-71
2022/03/10 08:19:02;;;;;;;5.22;2.27;;;;;;;;;;1681061;85;21094;-69
2022/03/10 08:21:30;;;;;;;4.60;2.75;;;;;;;;;;1681268;85;21121;-69
2022/03/10 08:23:58;;;;;;;3.87;2.30;;;;;;;;;;1680851;85;21022;-70
2022/03/10 08:26:25;;;;;;;3.35;2.33;;;;;;;;;;1681198;85;21031;-69
2022/03/10 08:28:52;;;;;;;3.55;2.08;;;;;;;;;;1681271;85;21050;-70
2022/03/10 08:31:19;;;;;;;4.85;2.33;;;;;;;;;;1681092;85;21042;-70
2022/03/10 08:33:46;;;;;;;4.87;2.77;;;;;;;;;;1681081;85;21085;-69
2022/03/10 08:36:13;;;;;;;4.15;2.37;;;;;;;;;;1681361;85;21030;-72
2022/03/10 08:38:40;;;;;;;2.77;2.00;;;;;;;;;;1681068;85;21329;-70
2022/03/10 08:41:06;;;;;;;4.45;2.65;;;;;;;;;;1680965;85;21030;-73
2022/03/10 08:43:33;;;;;;;3.80;2.27;;;;;;;;;;1681140;85;21026;-70
2022/03/10 08:46:03;;;;;;;3.77;2.65;;;;;;;;;;1681014;85;21545;-71
2022/03/10 08:48:32;;;;;;;6.97;2.83;;;;;;;;;;1680847;85;21101;-70
2022/03/10 08:51:00;;;;;;;5.05;3.12;;;;;;;;;;1680946;85;21048;-68
2022/03/10 08:53:26;;;;;;;5.40;2.40;;;;;;;;;;1680978;85;21022;-70
2022/03/10 08:55:54;;;;;;;3.98;2.50;;;;;;;;;;1680952;85;21111;-69
2022/03/10 08:58:20;;;;;;;4.30;2.83;;;;;;;;;;1681054;85;21573;-69
2022/03/10 09:00:46;;;;;;;6.37;3.08;;;;;;;;;;1680985;85;21050;-70
2022/03/10 09:03:13;;;;;;;4.12;2.50;;;;;;;;;;1680829;84;21036;-70
2022/03/10 09:05:40;;;;;;;5.35;2.45;;;;;;;;;;1681063;85;21030;-70
2022/03/10 09:08:06;;;;;;;4.78;2.85;;;;;;;;;;1711677;83;21073;-70
2022/03/10 09:10:35;;;;;;;3.85;2.30;;;;;;;;;;1680405;85;21026;-70
2022/03/10 09:13:02;;;;;;;4.12;2.90;;;;;;;;;;1712575;84;21117;-69
2022/03/10 09:15:28;;;;;;;4.95;2.45;;;;;;;;;;1680690;85;21026;-69
2022/03/10 09:17:56;;;;;;;3.17;2.05;;;;;;;;;;1712597;84;21643;-69
2022/03/10 09:20:22;;;;;;;4.62;3.02;;;;;;;;;;1680804;85;21066;-69
2022/03/10 09:22:49;;;;;;;4.15;2.50;;;;;;;;;;1712744;84;21014;-69
2022/03/10 09:25:15;;;;;;;3.22;2.45;;;;;;;;;;1680575;85;21055;-69
2022/03/10 09:27:42;;;;;;;3.72;2.35;;;;;;;;;;1712954;84;21081;-69
2022/03/10 09:30:09;;;;;;;4.78;2.62;;;;;;;;;;1680933;85;21062;-69
2022/03/10 09:32:36;;;;;;;3.27;2.25;;;;;;;;;;1712937;84;21050;-69
2022/03/10 09:35:03;;;;;;;3.80;2.33;;;;;;;;;;1680619;85;21039;-69
2022/03/10 09:37:30;;;;;;;4.25;2.37;;;;;;;;;;1712972;84;21089;-69
2022/03/10 09:39:56;;;;;;;2.98;2.12;;;;;;;;;;1680734;85;21062;-70
2022/03/10 09:42:24;;;;;;;7.30;2.52;;;;;;;;;;1712975;84;20990;-69
2022/03/10 09:44:53;;;;;;;3.77;2.15;;;;;;;;;;1681098;85;21046;-69
2022/03/10 09:47:19;;;;;;;4.08;2.17;;;;;;;;;;1712843;84;21529;-68
2022/03/10 09:49:46;;;;;;;4.55;2.47;;;;;;;;;;1680662;85;21097;-68
2022/03/10 09:52:12;;;;;;;8.35;2.55;;;;;;;;;;1680991;85;21050;-68
2022/03/10 09:54:39;;;;;;;3.05;2.12;;;;;;;;;;1712759;84;21053;-70
2022/03/10 09:57:06;;;;;;;4.55;2.65;;;;;;;;;;1680964;85;21049;-68
2022/03/10 09:59:35;;;;;;;3.30;2.27;;;;;;;;;;1712730;84;21600;-67
2022/03/10 10:02:02;;;;;;;4.50;2.33;;;;;;;;;;1680976;85;21087;-69
2022/03/10 10:04:30;;;;;;;2.50;1.82;;;;;;;;;;1712633;82;21129;-69
2022/03/10 10:07:04;;;;;;;2.87;1.95;;;;;;;;;;1684620;84;21069;-69
2022/03/10 10:09:42;;;;;;;4.85;2.27;;;;;;;;;;1681325;85;21062;-68
2022/03/10 10:12:09;;;;;;;3.80;2.20;;;;;;;;;;1681203;85;21601;-68
2022/03/10 10:14:54;;;;;;;3.15;2.00;;;;;;;;;;1681045;85;21677;-68
2022/03/10 10:17:26;;;;;;;4.05;2.17;;;;;;;;;;1681051;85;21597;-67
2022/03/10 10:19:54;;;;;;;3.10;2.17;;;;;;;;;;1681028;84;21035;-67
2022/03/10 10:22:20;;;;;;;3.33;2.10;;;;;;;;;;1680555;85;21050;-67
2022/03/10 10:25:00;;;;;;;3.58;2.42;;;;;;;;;;1680928;85;21078;-68
2022/03/10 10:27:27;;;;;;;2.85;2.20;;;;;;;;;;1681233;85;21026;-68
2022/03/10 10:29:55;;;;;;;3.08;2.10;;;;;;;;;;1681057;85;21015;-68
2022/03/10 10:32:26;;;;;;;4.10;1.98;;;;;;;;;;1681082;85;21074;-68
2022/03/10 10:35:13;;;;;;;3.67;2.47;;;;;;;;;;1681054;85;21034;-70
2022/03/10 10:37:42;;;;;;;3.87;2.40;;;;;;;;;;1681202;85;21042;-70
2022/03/10 10:40:10;;;;;;;2.67;2.08;;;;;;;;;;1681167;85;21070;-70
2022/03/10 10:42:38;;;;;;;5.30;2.72;;;;;;;;;;1681143;85;21070;-70
2022/03/10 10:45:06;;;;;;;3.72;2.20;;;;;;;;;;1680942;85;21592;-69
2022/03/10 10:47:32;;;;;;;3.17;2.33;;;;;;;;;;1679277;85;21573;-70
2022/03/10 10:50:04;;;;;;;3.30;2.35;;;;;;;;;;1681341;85;21042;-70
2022/03/10 10:52:40;;;;;;;3.55;2.22;;;;;;;;;;1681017;85;21042;-70
2022/03/10 10:55:10;;;;;;;2.77;2.20;;;;;;;;;;1681207;85;21550;-70
2022/03/10 10:57:37;;;;;;;5.53;2.72;;;;;;;;;;1681100;85;21015;-70
2022/03/10 11:00:05;;;;;;;3.40;2.20;;;;;;;;;;1681274;85;21351;-70
2022/03/10 11:02:34;;;;;;;2.40;2.00;;;;;;;;;;1680723;84;21102;-69
2022/03/10 11:05:00;;;;;;;4.55;2.12;;;;;;;;;;1669460;85;21034;-69
2022/03/10 11:07:27;;;;;;;3.00;2.22;;;;;;;;;;1680915;84;21086;-70
2022/03/10 11:09:54;;;;;;;3.67;2.45;;;;;;;;;;1681246;85;20991;-69
2022/03/10 11:12:22;;;;;;;3.72;2.30;;;;;;;;;;1680924;85;21126;-69
2022/03/10 11:14:49;;;;;;;3.95;2.08;;;;;;;;;;1681280;85;21074;-69
2022/03/10 11:17:15;;;;;;;3.20;2.10;;;;;;;;;;1681231;85;21574;-69
2022/03/10 11:19:44;;;;;;;4.30;2.83;;;;;;;;;;1669306;85;21074;-69
2022/03/10 11:22:27;;;;;;;4.28;2.62;;;;;;;;;;1681006;85;21054;-69
2022/03/10 11:25:12;;;;;;;3.92;2.22;;;;;;;;;;1681157;85;21117;-69
2022/03/10 11:27:43;;;;;;;4.15;2.40;;;;;;;;;;1681250;85;21038;-71
2022/03/10 11:30:10;;;;;;;4.60;2.25;;;;;;;;;;1681079;85;21038;-69
2022/03/10 11:32:37;;;;;;;2.52;2.00;;;;;;;;;;1681180;85;21089;-70
2022/03/10 11:35:04;;;;;;;5.15;2.70;;;;;;;;;;1680922;85;21054;-68
2022/03/10 11:37:34;;;;;;;4.00;2.52;;;;;;;;;;1681029;85;21066;-70
2022/03/10 11:40:02;;;;;;;3.08;2.50;;;;;;;;;;1680966;85;21592;-70
2022/03/10 11:42:29;;;;;;;4.17;2.63;;;;;;;;;;1680909;85;21513;-70
2022/03/10 11:45:13;;;;;;;4.00;2.37;;;;;;;;;;1680756;85;21106;-69
2022/03/10 11:47:40;;;;;;;;;;;;;;;;;;1671736;85;21069;-69
2022/03/10 11:50:23;;;;;;;3.58;2.05;;;;;;;;;;1680858;85;20106;-69
2022/03/10 11:52:53;;;;;;;3.42;2.60;;;;;;;;;;1681407;85;21593;-69
2022/03/10 11:55:20;;;;;;;4.55;2.20;;;;;;;;;;1680964;85;21521;-69
2022/03/10 11:57:55;;;;;;;6.03;2.67;;;;;;;;;;1681144;85;22128;-69
2022/03/10 12:00:24;;;;;;;4.33;2.45;;;;;;;;;;1681066;85;21609;-69
2022/03/10 12:02:57;;;;;;;5.58;2.50;;;;;;;;;;1680909;84;21149;-69
2022/03/10 12:05:24;;;;;;;3.33;2.22;;;;;;;;;;1681252;85;21082;-70
2022/03/10 12:07:51;;;;;;;3.95;2.62;;;;;;;;;;1681109;84;21574;-69
2022/03/10 12:10:18;;;;;;;5.50;2.60;;;;;;;;;;1681139;85;21517;-70
2022/03/10 12:12:48;;;;;;;2.83;2.00;;;;;;;;;;1680800;85;21618;-70
2022/03/10 12:15:28;;;;;;;3.15;1.98;;;;;;;;;;1680815;85;21059;-70
2022/03/10 12:17:55;;;;;;;3.35;1.95;;;;;;;;;;1681199;85;21073;-70
2022/03/10 12:20:23;;;;;;;5.65;2.67;;;;;;;;;;1681133;85;21109;-70
2022/03/10 12:23:06;;;;;;;3.65;2.20;;;;;;;;;;1681051;85;21049;-69
2022/03/10 12:25:39;;;;;;;3.90;2.35;;;;;;;;;;1680855;85;21530;-68
2022/03/10 12:28:05;;;;;;;2.08;1.92;;;;;;;;;;1680998;85;21038;-68
2022/03/10 12:30:34;;;;;;;3.42;2.08;;;;;;;;;;1680739;85;21055;-68
2022/03/10 12:33:00;;;;;;;3.83;2.30;;;;;;;;;;1669067;85;21078;-70
2022/03/10 12:35:28;;;;;;;3.98;2.55;;;;;;;;;;1681185;85;21034;-71
2022/03/10 12:37:54;;;;;;;3.10;2.10;;;;;;;;;;1681121;85;21577;-70
2022/03/10 12:40:22;;;;;;;5.17;2.52;;;;;;;;;;1681138;85;21102;-69
2022/03/10 12:42:49;;;;;;;3.62;2.17;;;;;;;;;;1681291;85;21026;-69
2022/03/10 12:45:19;;;;;;;3.65;2.00;;;;;;;;;;1681234;85;20975;-69
2022/03/10 12:47:48;;;;;;;3.37;2.40;;;;;;;;;;1681008;85;21530;-70
2022/03/10 12:50:15;;;;;;;3.42;2.15;;;;;;;;;;1680443;85;21155;-70
2022/03/10 12:52:41;;;;;;;3.98;2.27;;;;;;;;;;1680947;85;21031;-70
2022/03/10 12:55:09;;;;;;;4.12;2.52;;;;;;;;;;1681025;85;21081;-70
2022/03/10 12:57:37;;;;;;;4.55;2.17;;;;;;;;;;1681003;85;21078;-70
2022/03/10 13:00:09;;;;;;;3.95;2.40;;;;;;;;;;1680401;85;21082;-69
2022/03/10 13:02:37;;;;;;;3.08;2.60;;;;;;;;;;1676212;84;21656;-68
2022/03/10 13:05:05;;;;;;;2.87;2.30;;;;;;;;;;1681006;85;21034;-68
2022/03/10 13:07:34;;;;;;;2.75;2.10;;;;;;;;;;1676319;84;21057;-69
2022/03/10 13:10:04;;;;;;;4.58;2.10;;;;;;;;;;1680597;85;21058;-68
2022/03/10 13:12:32;;;;;;;3.62;2.20;;;;;;;;;;1712099;84;21097;-68
2022/03/10 13:14:59;;;;;;;3.62;2.50;;;;;;;;;;1680824;85;21447;-69
2022/03/10 13:17:37;;;;;;;5.10;2.83;;;;;;;;;;1712365;84;21049;-68
2022/03/10 13:21:32;;;;;;;4.95;2.80;;;;;;;;;;1819786;79;23597;-68
2022/03/10 13:23:58;;;;;;;5.28;2.80;;;;;;;;;;1793118;80;21037;-68
2022/03/10 13:26:25;;;;;;;5.58;2.75;;;;;;;;;;1793183;80;20997;-69
2022/03/10 13:28:52;;;;;;;3.05;2.20;;;;;;;;;;1793180;80;21071;-69
2022/03/10 13:31:20;;;;;;;4.20;2.50;;;;;;;;;;1792961;80;21011;-68
2022/03/10 13:33:47;;;;;;;4.08;2.52;;;;;;;;;;1792275;80;21036;-69
2022/03/10 13:36:14;;;;;;;3.92;2.50;;;;;;;;;;1792933;80;21051;-69
2022/03/10 13:38:42;;;;;;;2.75;2.15;;;;;;;;;;1793022;80;21032;-69
2022/03/10 13:41:08;;;;;;;5.53;2.47;;;;;;;;;;1792984;80;21039;-70
2022/03/10 13:43:36;;;;;;;4.62;2.40;;;;;;;;;;1792787;80;21021;-69
2022/03/10 13:46:10;;;;;;;2.80;2.00;;;;;;;;;;1792914;80;21099;-69
2022/03/10 13:48:46;;;;;;;2.98;2.25;;;;;;;;;;1792740;80;21071;-68
2022/03/10 13:51:14;;;;;;;3.65;2.30;;;;;;;;;;1792581;80;22118;-69
2022/03/10 13:53:43;;;;;;;3.02;2.40;;;;;;;;;;1793006;80;21543;-69
2022/03/10 13:56:09;;;;;;;4.92;2.20;;;;;;;;;;1790998;80;21043;-69
2022/03/10 13:58:36;;;;;;;2.60;2.02;;;;;;;;;;1792806;80;21594;-69
2022/03/10 14:01:03;;;;;;;4.05;2.00;;;;;;;;;;1792999;80;21039;-69
2022/03/10 14:03:30;;;;;;;4.58;2.85;;;;;;;;;;1789593;79;21060;-69
2022/03/10 14:06:01;;;;;;;5.50;2.65;;;;;;;;;;1788124;80;21094;-69
2022/03/10 14:08:28;;;;;;;3.80;2.50;;;;;;;;;;1788285;80;21594;-68
2022/03/10 14:10:59;;;;;;;3.47;2.40;;;;;;;;;;1788087;80;21040;-68
2022/03/10 14:13:30;;;;;;;2.60;2.17;;;;;;;;;;1788181;80;21576;-68
2022/03/10 14:15:57;;;;;;;3.08;2.00;;;;;;;;;;1787964;80;21012;-69
2022/03/10 14:18:26;;;;;;;3.65;2.27;;;;;;;;;;1788169;80;21043;-69
2022/03/10 14:20:53;;;;;;;6.12;3.00;;;;;;;;;;1781322;80;21068;-69
2022/03/10 14:23:20;;;;;;;4.25;2.75;;;;;;;;;;1777841;81;21326;-69
2022/03/10 14:25:47;;;;;;;6.55;3.67;;;;;;;;;;1777734;81;21017;-69
2022/03/10 14:28:15;;;;;;;8.50;3.27;;;;;;;;;;1777794;81;21131;-69
2022/03/10 14:30:49;;;;;;;6.37;3.58;;;;;;;;;;1777982;81;21051;-69
2022/03/10 14:33:19;;;;;;;6.12;3.25;;;;;;;;;;1777074;81;21544;-69
2022/03/10 14:35:45;;;;;;;5.92;2.83;;;;;;;;;;1776370;81;21021;-69
2022/03/10 14:38:13;;;;;;;8.65;3.40;;;;;;;;;;1777222;81;20981;-68
2022/03/10 14:40:40;;;;;;;6.05;2.80;;;;;;;;;;1776893;81;21583;-68
2022/03/10 14:43:07;;;;;;;5.28;2.58;;;;;;;;;;1776973;81;21559;-68
2022/03/10 14:45:33;;;;;;;5.47;3.02;;;;;;;;;;1777215;81;21024;-68
2022/03/10 14:48:01;;;;;;;5.97;3.15;;;;;;;;;;1777183;81;21052;-68
2022/03/10 14:50:27;;;;;;;9.00;3.25;;;;;;;;;;1777304;81;20981;-68
2022/03/10 14:52:55;;;;;;;5.92;2.80;;;;;;;;;;1777327;81;20985;-69
2022/03/10 14:55:22;;;;;;;4.80;3.00;;;;;;;;;;1777151;81;21063;-69
2022/03/10 14:57:48;;;;;;;5.17;2.83;;;;;;;;;;1777150;81;21056;-69